createdAt,value
2019-04-04T00:02:17.064Z,31.23
2019-04-04T00:04:48.660Z,32.90
2019-04-04T00:07:19.291Z,30.73
2019-04-04T00:09:50.152Z,26.80
2019-04-04T00:12:20.686Z,32.30
2019-04-04T00:14:51.341Z,29.27
2019-04-04T00:17:23.217Z,34.80
2019-04-04T00:19:54.036Z,31.17
2019-04-04T00:22:24.740Z,31.80
2019-04-04T00:24:55.522Z,38.23
2019-04-04T00:27:26.151Z,27.53
2019-04-04T00:29:56.665Z,34.37
2019-04-04T00:32:27.221Z,31.17
2019-04-04T00:34:59.719Z,31.40
2019-04-04T00:37:29.985Z,27.90
2019-04-04T00:40:00.522Z,29.20
2019-04-04T00:42:31.020Z,28.67
2019-04-04T00:45:01.681Z,35.47
2019-04-04T00:47:32.657Z,29.77
2019-04-04T00:50:06.089Z,31.13
2019-04-04T00:52:36.221Z,30.90
2019-04-04T00:55:07.325Z,33.17
2019-04-04T00:57:37.966Z,32.97
2019-04-04T01:00:09.851Z,29.17
2019-04-04T01:02:40.490Z,37.33
2019-04-04T01:05:11.151Z,34.60
2019-04-04T01:07:41.680Z,31.77
2019-04-04T01:10:12.382Z,36.43
2019-04-04T01:12:43.116Z,35.13
2019-04-04T01:15:14.017Z,37.67
2019-04-04T01:17:44.654Z,32.90
2019-04-04T01:20:15.835Z,38.73
2019-04-04T01:22:46.330Z,37.07
2019-04-04T01:25:16.937Z,34.93
2019-04-04T01:27:47.571Z,35.63
2019-04-04T01:30:18.730Z,33.77
2019-04-04T01:32:49.307Z,32.10
2019-04-04T01:35:22.431Z,37.37
2019-04-04T01:37:52.354Z,35.50
2019-04-04T01:40:23.023Z,34.83
2019-04-04T01:42:53.546Z,31.67
2019-04-04T01:45:24.181Z,33.47
2019-04-04T01:47:54.584Z,30.97
2019-04-04T01:50:25.121Z,35.33
2019-04-04T01:52:59.014Z,32.90
2019-04-04T01:55:27.981Z,29.27
2019-04-04T01:57:58.496Z,36.63
2019-04-04T02:00:29.202Z,33.83
2019-04-04T02:02:59.721Z,36.93
2019-04-04T02:05:30.410Z,33.63
2019-04-04T02:08:01.562Z,31.07
2019-04-04T02:10:34.505Z,34.63
2019-04-04T02:13:04.519Z,33.70
2019-04-04T02:15:35.094Z,33.00
2019-04-04T02:18:05.830Z,27.97
2019-04-04T02:20:36.501Z,34.03
2019-04-04T02:23:07.066Z,34.40
2019-04-04T02:25:37.860Z,40.20
2019-04-04T02:28:08.891Z,37.27
2019-04-04T02:30:40.267Z,35.40
2019-04-04T02:33:10.914Z,38.53
2019-04-04T02:35:43.744Z,35.07
2019-04-04T02:38:14.093Z,34.03
2019-04-04T02:40:44.910Z,37.17
2019-04-04T02:43:15.417Z,35.33
2019-04-04T02:45:45.934Z,39.07
2019-04-04T02:48:16.692Z,39.20
2019-04-04T02:50:47.371Z,35.80
2019-04-04T02:53:20.329Z,35.90
2019-04-04T02:55:50.277Z,32.67
2019-04-04T02:58:20.785Z,33.63
2019-04-04T03:00:51.493Z,37.40
2019-04-04T03:03:22.013Z,37.40
2019-04-04T03:05:52.900Z,33.90
2019-04-04T03:08:23.614Z,42.73
2019-04-04T03:10:54.262Z,41.37
2019-04-04T03:13:24.865Z,37.53
2019-04-04T03:15:55.472Z,36.17
2019-04-04T03:18:26.077Z,37.53
2019-04-04T03:20:56.720Z,33.87
2019-04-04T03:23:27.255Z,34.20
2019-04-04T03:25:57.835Z,39.50
2019-04-04T03:28:31.309Z,37.63
2019-04-04T03:31:03.002Z,36.37
2019-04-04T03:33:33.344Z,35.37
2019-04-04T03:36:03.937Z,36.47
2019-04-04T03:38:34.415Z,36.77
2019-04-04T03:41:05.287Z,39.33
2019-04-04T03:43:35.760Z,35.33
2019-04-04T03:46:06.464Z,39.30
2019-04-04T03:48:37.131Z,32.33
2019-04-04T03:51:07.740Z,36.63
2019-04-04T03:53:41.154Z,34.33
2019-04-04T03:56:11.872Z,37.30
2019-04-04T03:58:42.602Z,40.27
2019-04-04T04:01:13.375Z,38.23
2019-04-04T04:03:44.112Z,34.23
2019-04-04T04:06:14.933Z,36.73
2019-04-04T04:08:45.511Z,35.13
2019-04-04T04:11:16.121Z,30.90
2019-04-04T04:13:49.910Z,36.80
2019-04-04T04:16:19.084Z,37.40
2019-04-04T04:18:54.039Z,40.30
2019-04-04T04:21:22.186Z,40.10
2019-04-04T04:23:56.341Z,38.23
2019-04-04T04:26:25.043Z,36.93
2019-04-04T04:28:56.029Z,35.63
2019-04-04T04:31:29.919Z,37.10
2019-04-04T04:34:01.894Z,32.97
2019-04-04T04:36:32.615Z,34.10
2019-04-04T04:39:03.907Z,37.43
2019-04-04T04:41:35.615Z,38.53
2019-04-04T04:44:07.021Z,33.00
2019-04-04T04:46:38.098Z,35.70
2019-04-04T04:49:09.354Z,34.27
2019-04-04T04:51:43.252Z,34.57
2019-04-04T04:54:13.188Z,33.53
2019-04-04T04:56:44.337Z,35.27
2019-04-04T04:59:15.633Z,32.73
2019-04-04T05:01:50.218Z,37.33
2019-04-04T05:04:19.780Z,34.90
2019-04-04T05:06:50.729Z,32.80
2019-04-04T05:09:21.720Z,37.33
2019-04-04T05:11:52.819Z,33.83
2019-04-04T05:14:23.806Z,36.70
2019-04-04T05:16:54.340Z,37.57
2019-04-04T05:19:25.017Z,35.77
2019-04-04T05:21:55.650Z,38.47
2019-04-04T05:24:26.403Z,37.37
2019-04-04T05:26:57.396Z,32.33
2019-04-04T05:29:27.953Z,34.37
2019-04-04T05:31:58.699Z,33.50
2019-04-04T05:34:30.434Z,34.47
2019-04-04T05:37:01.719Z,31.93
2019-04-04T05:39:32.678Z,30.30
2019-04-04T05:42:03.495Z,37.17
2019-04-04T05:44:34.386Z,35.27
2019-04-04T05:47:05.220Z,29.30
2019-04-04T05:49:36.166Z,32.30
2019-04-04T05:52:09.186Z,31.33
2019-04-04T05:54:40.246Z,34.80
2019-04-04T05:57:11.007Z,31.07
2019-04-04T05:59:42.530Z,28.30
2019-04-04T06:02:13.495Z,28.10
2019-04-04T06:04:44.245Z,28.47
2019-04-04T06:07:16.507Z,30.77
2019-04-04T06:09:47.507Z,28.40
2019-04-04T06:12:18.532Z,33.47
2019-04-04T06:14:49.096Z,28.13
2019-04-04T06:17:20.583Z,25.17
2019-04-04T06:19:55.199Z,22.57
2019-04-04T06:22:27.194Z,25.23
2019-04-04T06:24:59.335Z,22.63
2019-04-04T06:27:31.082Z,24.70
2019-04-04T06:30:04.634Z,17.27
2019-04-04T06:32:35.410Z,18.70
2019-04-04T06:35:06.575Z,18.50
2019-04-04T06:37:38.687Z,25.60
2019-04-04T06:40:10.313Z,20.43
2019-04-04T06:42:40.923Z,18.97
2019-04-04T06:45:15.150Z,21.07
2019-04-04T06:47:44.596Z,22.00
2019-04-04T06:50:17.188Z,18.93
2019-04-04T06:52:50.417Z,18.83
2019-04-04T06:55:22.432Z,17.47
2019-04-04T06:57:55.687Z,21.97
2019-04-04T07:00:26.464Z,17.37
2019-04-04T07:02:57.636Z,18.23
2019-04-04T07:05:28.526Z,17.70
2019-04-04T07:07:59.393Z,18.47
2019-04-04T07:10:30.334Z,17.67
2019-04-04T07:13:20.173Z,16.07
2019-04-04T07:15:46.314Z,22.63
2019-04-04T07:18:07.154Z,17.73
2019-04-04T07:20:38.318Z,22.37
2019-04-04T07:23:09.247Z,19.93
2019-04-04T07:25:40.291Z,12.67
2019-04-04T07:28:11.672Z,19.00
2019-04-04T07:30:42.597Z,19.60
2019-04-04T07:33:14.027Z,16.50
2019-04-04T07:35:44.763Z,17.47
2019-04-04T07:38:15.859Z,19.20
2019-04-04T07:40:47.196Z,17.20
2019-04-04T07:43:19.399Z,14.93
2019-04-04T07:45:51.029Z,17.77
2019-04-04T07:48:22.516Z,16.20
2019-04-04T07:50:53.469Z,13.50
2019-04-04T07:53:24.282Z,16.20
2019-04-04T07:55:55.140Z,15.17
2019-04-04T07:58:25.896Z,12.00
2019-04-04T08:00:56.980Z,23.00
2019-04-04T08:03:28.659Z,19.50
2019-04-04T08:05:59.340Z,14.63
2019-04-04T08:08:30.128Z,17.50
2019-04-04T08:11:00.851Z,13.57
2019-04-04T08:13:31.472Z,15.67
2019-04-04T08:16:02.166Z,15.73
2019-04-04T08:18:32.841Z,15.07
2019-04-04T08:21:05.637Z,14.67
2019-04-04T08:23:35.795Z,12.10
2019-04-04T08:26:06.405Z,10.43
2019-04-04T08:28:36.917Z,14.80
2019-04-04T08:31:09.823Z,14.17
2019-04-04T08:33:39.921Z,12.63
2019-04-04T08:36:10.557Z,10.97
2019-04-04T08:38:41.369Z,14.83
2019-04-04T08:41:12.156Z,14.87
2019-04-04T08:43:42.632Z,13.50
2019-04-04T08:46:13.291Z,10.73
2019-04-04T08:48:43.918Z,14.13
2019-04-04T08:51:14.733Z,14.67
2019-04-04T08:53:48.484Z,15.00
2019-04-04T08:56:19.255Z,14.13
2019-04-04T08:58:51.696Z,13.10
2019-04-04T09:01:22.703Z,13.97
2019-04-04T09:03:53.894Z,15.73
2019-04-04T09:06:24.485Z,14.30
2019-04-04T09:08:55.137Z,14.50
2019-04-04T09:11:25.920Z,18.50
2019-04-04T09:13:56.727Z,12.60
2019-04-04T09:16:29.125Z,15.90
2019-04-04T09:18:59.950Z,14.80
2019-04-04T09:21:30.502Z,14.63
2019-04-04T09:24:01.222Z,16.37
2019-04-04T09:26:32.410Z,22.07
2019-04-04T09:29:03.087Z,15.63
2019-04-04T09:31:33.740Z,14.57
2019-04-04T09:34:04.430Z,21.57
2019-04-04T09:36:35.317Z,18.57
2019-04-04T09:39:07.711Z,16.77
2019-04-04T09:41:39.042Z,12.47
2019-04-04T09:44:10.012Z,15.93
2019-04-04T09:46:41.076Z,20.13
2019-04-04T09:49:13.051Z,14.07
2019-04-04T09:51:44.016Z,14.53
2019-04-04T09:54:14.601Z,16.53
2019-04-04T09:56:45.123Z,12.87
2019-04-04T09:59:16.778Z,16.47
2019-04-04T10:01:47.811Z,10.60
2019-04-04T10:04:18.821Z,14.17
2019-04-04T10:06:59.264Z,17.23
2019-04-04T10:09:30.097Z,22.17
2019-04-04T10:12:01.339Z,10.23
2019-04-04T10:14:31.951Z,15.57
2019-04-04T10:17:02.573Z,12.77
2019-04-04T10:19:33.006Z,15.07
2019-04-04T10:22:03.640Z,12.67
2019-04-04T10:24:36.356Z,15.80
2019-04-04T10:27:07.151Z,16.10
2019-04-04T10:29:38.012Z,15.77
2019-04-04T10:32:08.871Z,18.93
2019-04-04T10:34:39.338Z,27.90
2019-04-04T10:37:10.388Z,16.27
2019-04-04T10:39:41.387Z,14.13
2019-04-04T10:42:12.472Z,16.50
2019-04-04T10:44:43.830Z,11.70
2019-04-04T10:47:15.199Z,15.77
2019-04-04T10:49:46.479Z,11.73
2019-04-04T10:52:22.147Z,17.13
2019-04-04T10:54:52.573Z,19.03
2019-04-04T10:57:23.174Z,15.57
2019-04-04T10:59:54.568Z,13.33
2019-04-04T11:02:25.528Z,11.13
2019-04-04T11:04:56.465Z,16.03
2019-04-04T11:07:27.129Z,10.90
2019-04-04T11:09:57.820Z,13.70
2019-04-04T11:12:28.395Z,13.87
2019-04-04T11:14:58.984Z,13.13
2019-04-04T11:17:29.486Z,9.20
2019-04-04T11:20:00.151Z,15.67
2019-04-04T11:22:30.920Z,8.63
2019-04-04T11:25:01.558Z,16.97
2019-04-04T11:27:32.143Z,13.00
2019-04-04T11:30:02.867Z,12.63
2019-04-04T11:32:33.424Z,10.80
2019-04-04T11:35:04.319Z,10.13
2019-04-04T11:37:36.585Z,8.70
2019-04-04T11:40:07.566Z,16.37
2019-04-04T11:42:38.160Z,14.30
2019-04-04T11:45:09.057Z,10.43
2019-04-04T11:47:39.809Z,10.37
2019-04-04T11:50:11.707Z,10.63
2019-04-04T11:52:42.290Z,10.23
2019-04-04T11:55:13.666Z,11.23
2019-04-04T11:57:44.123Z,9.87
2019-04-04T12:00:20.812Z,9.83
2019-04-04T12:02:51.215Z,9.27
2019-04-04T12:05:21.669Z,8.17
2019-04-04T12:07:52.146Z,8.97
2019-04-04T12:10:22.766Z,15.10
2019-04-04T12:12:53.291Z,13.07
2019-04-04T12:15:23.802Z,19.53
2019-04-04T12:17:54.416Z,10.80
2019-04-04T12:20:25.116Z,12.13
2019-04-04T12:22:55.728Z,8.70
2019-04-04T12:25:26.622Z,11.17
2019-04-04T12:27:57.202Z,8.90
2019-04-04T12:30:27.910Z,10.33
2019-04-04T12:32:58.484Z,11.13
2019-04-04T12:35:29.041Z,6.03
2019-04-04T12:37:59.730Z,10.33
2019-04-04T12:40:30.340Z,10.40
2019-04-04T12:43:00.850Z,10.83
2019-04-04T12:45:31.432Z,17.50
2019-04-04T12:48:02.112Z,9.63
2019-04-04T12:50:32.734Z,14.60
2019-04-04T12:53:03.731Z,11.23
2019-04-04T12:55:34.553Z,10.37
2019-04-04T12:58:05.292Z,8.53
2019-04-04T13:00:36.020Z,9.83
2019-04-04T13:03:06.794Z,19.00
2019-04-04T13:05:37.322Z,8.93
2019-04-04T13:08:08.313Z,11.67
2019-04-04T13:10:39.547Z,11.47
2019-04-04T13:13:10.013Z,9.07
2019-04-04T13:15:45.151Z,9.73
2019-04-04T13:18:15.676Z,9.33
2019-04-04T13:20:46.447Z,15.00
2019-04-04T13:23:17.161Z,9.73
2019-04-04T13:25:47.711Z,11.83
2019-04-04T13:28:18.385Z,8.23
2019-04-04T13:30:48.860Z,11.00
2019-04-04T13:33:22.495Z,9.87
2019-04-04T13:35:52.065Z,13.63
2019-04-04T13:38:22.656Z,9.03
2019-04-04T13:40:53.336Z,14.13
2019-04-04T13:43:24.131Z,11.83
2019-04-04T13:45:54.763Z,8.03
2019-04-04T13:48:25.452Z,7.63
2019-04-04T13:50:56.277Z,15.43
2019-04-04T13:53:27.374Z,8.43
2019-04-04T13:55:59.213Z,10.03
2019-04-04T13:58:30.163Z,11.13
2019-04-04T14:01:00.639Z,13.20
2019-04-04T14:03:31.225Z,8.60
2019-04-04T14:06:02.064Z,11.37
2019-04-04T14:08:32.763Z,9.97
2019-04-04T14:11:03.517Z,9.40
2019-04-04T14:13:34.206Z,8.80
2019-04-04T14:16:06.173Z,8.40
2019-04-04T14:18:44.778Z,7.97
2019-04-04T14:21:36.506Z,8.13
2019-04-04T14:24:13.967Z,8.40
2019-04-04T14:26:45.901Z,9.33
2019-04-04T14:29:33.530Z,14.30
2019-04-04T14:32:04.302Z,9.67
2019-04-04T14:34:35.389Z,9.43
2019-04-04T14:37:05.940Z,8.47
2019-04-04T14:39:36.741Z,8.33
2019-04-04T14:42:08.943Z,11.73
2019-04-04T14:44:41.356Z,8.80
2019-04-04T14:47:13.941Z,15.00
2019-04-04T14:49:46.264Z,10.37
2019-04-04T14:52:19.755Z,9.07
2019-04-04T14:54:53.132Z,9.40
2019-04-04T14:57:25.853Z,12.17
2019-04-04T14:59:56.910Z,12.90
2019-04-04T15:02:27.861Z,14.40
2019-04-04T15:04:58.608Z,26.73
2019-04-04T15:07:29.277Z,10.07
2019-04-04T15:10:00.315Z,9.67
2019-04-04T15:12:31.171Z,17.57
2019-04-04T15:15:01.937Z,8.53
2019-04-04T15:17:32.769Z,9.30
2019-04-04T15:20:03.672Z,12.30
2019-04-04T15:22:34.256Z,14.70
2019-04-04T15:25:05.141Z,12.83
2019-04-04T15:27:35.803Z,15.57
2019-04-04T15:30:07.397Z,12.17
2019-04-04T15:32:38.197Z,12.53
2019-04-04T15:35:09.432Z,9.63
2019-04-04T15:37:39.982Z,12.90
2019-04-04T15:40:11.030Z,14.23
2019-04-04T15:42:43.410Z,13.13
2019-04-04T15:45:15.590Z,17.73
2019-04-04T15:47:46.352Z,9.87
2019-04-04T15:50:17.192Z,13.10
2019-04-04T15:52:47.874Z,12.90
2019-04-04T15:55:19.042Z,13.23
2019-04-04T15:57:50.914Z,10.47
2019-04-04T16:00:22.001Z,10.13
2019-04-04T16:02:52.678Z,10.13
2019-04-04T16:05:23.391Z,11.77
2019-04-04T16:07:54.180Z,11.30
2019-04-04T16:10:24.924Z,12.90
2019-04-04T16:12:55.701Z,13.87
2019-04-04T16:15:26.479Z,16.67
2019-04-04T16:17:57.277Z,14.80
2019-04-04T16:20:27.961Z,17.80
2019-04-04T16:22:58.615Z,8.67
2019-04-04T16:25:29.409Z,11.37
2019-04-04T16:28:00.102Z,27.13
2019-04-04T16:30:30.751Z,9.63
2019-04-04T16:33:01.572Z,10.67
2019-04-04T16:35:32.262Z,13.13
2019-04-04T16:38:04.514Z,10.53
2019-04-04T16:40:35.249Z,9.17
2019-04-04T16:43:05.906Z,10.27
2019-04-04T16:45:36.644Z,12.03
2019-04-04T16:48:07.455Z,9.83
2019-04-04T16:50:38.807Z,12.60
2019-04-04T16:53:09.806Z,8.30
2019-04-04T16:55:40.597Z,8.03
2019-04-04T16:58:11.384Z,21.13
2019-04-04T17:00:42.131Z,9.63
2019-04-04T17:03:12.755Z,10.40
2019-04-04T17:05:43.667Z,11.17
2019-04-04T17:08:14.366Z,15.47
2019-04-04T17:10:45.284Z,13.73
2019-04-04T17:13:15.852Z,15.30
2019-04-04T17:15:47.497Z,16.27
2019-04-04T17:18:18.331Z,16.10
2019-04-04T17:20:49.570Z,17.07
2019-04-04T17:23:20.507Z,15.27
2019-04-04T17:25:52.625Z,13.23
2019-04-04T17:28:23.834Z,14.47
2019-04-04T17:30:57.891Z,14.93
2019-04-04T17:33:30.983Z,15.13
2019-04-04T17:36:02.926Z,16.37
2019-04-04T17:38:33.586Z,13.80
2019-04-04T17:41:08.068Z,16.50
2019-04-04T17:43:39.128Z,13.03
2019-04-04T17:46:13.677Z,20.07
2019-04-04T17:48:46.030Z,19.07
2019-04-04T17:51:18.276Z,17.13
2019-04-04T17:53:49.170Z,14.73
2019-04-04T17:56:22.463Z,17.20
2019-04-04T17:58:53.449Z,15.27
2019-04-04T18:01:30.252Z,19.20
2019-04-04T18:04:00.986Z,18.37
2019-04-04T18:06:40.509Z,16.17
2019-04-04T18:09:14.012Z,17.67
2019-04-04T18:11:48.788Z,17.50
2019-04-04T18:14:21.906Z,17.13
2019-04-04T18:16:52.576Z,16.17
2019-04-04T18:19:25.481Z,15.43
2019-04-04T18:21:56.315Z,23.13
2019-04-04T18:24:28.603Z,18.43
2019-04-04T18:27:00.573Z,19.53
2019-04-04T18:29:36.615Z,16.97
2019-04-04T18:32:07.629Z,21.60
2019-04-04T18:34:39.459Z,20.17
2019-04-04T18:37:14.042Z,17.33
2019-04-04T18:39:53.338Z,24.03
2019-04-04T18:42:29.833Z,25.00
2019-04-04T18:45:06.321Z,18.97
2019-04-04T18:47:40.721Z,23.73
2019-04-04T18:50:12.899Z,24.93
2019-04-04T18:52:54.592Z,20.77
2019-04-04T18:55:34.030Z,19.97
2019-04-04T18:58:05.931Z,23.07
2019-04-04T19:00:38.331Z,20.00
2019-04-04T19:03:15.697Z,24.27
2019-04-04T19:05:46.568Z,23.07
2019-04-04T19:08:22.392Z,21.70
2019-04-04T19:11:04.814Z,24.97
2019-04-04T19:13:44.464Z,26.10
2019-04-04T19:16:14.270Z,18.23
2019-04-04T19:18:52.932Z,21.20
2019-04-04T19:21:30.663Z,23.90
2019-04-04T19:24:11.135Z,20.43
2019-04-04T19:26:46.362Z,20.17
2019-04-04T19:29:18.358Z,23.90
2019-04-04T19:31:54.629Z,19.67
2019-04-04T19:34:26.985Z,23.57
2019-04-04T19:37:02.578Z,19.57
2019-04-04T19:39:35.760Z,19.77
2019-04-04T19:42:06.836Z,17.80
2019-04-04T19:44:52.419Z,18.33
2019-04-04T19:47:12.569Z,20.00
2019-04-04T19:49:44.727Z,23.27
2019-04-04T19:52:19.189Z,18.87
2019-04-04T19:54:50.214Z,21.97
2019-04-04T19:57:25.318Z,22.53
2019-04-04T19:59:57.499Z,18.80
2019-04-04T20:02:34.131Z,18.33
2019-04-04T20:05:06.678Z,19.17
2019-04-04T20:07:39.120Z,21.57
2019-04-04T20:10:13.459Z,16.20
2019-04-04T20:12:47.306Z,20.60
2019-04-04T20:15:19.083Z,19.57
2019-04-04T20:17:51.413Z,17.53
2019-04-04T20:20:23.335Z,16.77
2019-04-04T20:22:54.226Z,17.57
2019-04-04T20:25:25.133Z,22.70
2019-04-04T20:27:56.194Z,19.47
2019-04-04T20:30:48.335Z,16.57
2019-04-04T20:33:20.853Z,17.30
2019-04-04T20:35:52.564Z,15.83
2019-04-04T20:38:23.657Z,20.20
2019-04-04T20:40:54.962Z,18.93
2019-04-04T20:43:25.541Z,15.33
2019-04-04T20:45:56.168Z,18.97
2019-04-04T20:48:27.133Z,17.23
2019-04-04T20:50:57.836Z,22.57
2019-04-04T20:53:29.216Z,14.83
2019-04-04T20:55:59.819Z,19.70
2019-04-04T20:58:30.246Z,18.90
2019-04-04T21:01:00.867Z,20.63
2019-04-04T21:03:31.468Z,20.73
2019-04-04T21:06:02.144Z,17.93
2019-04-04T21:08:32.965Z,14.80
2019-04-04T21:11:03.601Z,16.90
2019-04-04T21:13:34.151Z,18.10
2019-04-04T21:16:04.834Z,20.83
2019-04-04T21:18:35.364Z,22.00
2019-04-04T21:21:06.232Z,21.67
2019-04-04T21:23:36.779Z,17.13
2019-04-04T21:26:07.550Z,20.03
2019-04-04T21:28:38.233Z,22.80
2019-04-04T21:31:08.691Z,20.00
2019-04-04T21:33:39.287Z,19.70
2019-04-04T21:36:09.989Z,19.67
2019-04-04T21:38:40.536Z,20.27
2019-04-04T21:41:11.131Z,16.60
2019-04-04T21:43:42.697Z,19.30
2019-04-04T21:46:13.313Z,18.77
2019-04-04T21:48:43.781Z,18.40
2019-04-04T21:51:14.241Z,17.80
2019-04-04T21:53:45.280Z,20.57
2019-04-04T21:56:16.010Z,24.67
2019-04-04T21:58:46.989Z,17.93
2019-04-04T22:01:17.902Z,17.00
2019-04-04T22:03:48.502Z,20.43
2019-04-04T22:06:19.196Z,19.37
2019-04-04T22:08:49.786Z,19.60
2019-04-04T22:11:20.400Z,20.47
2019-04-04T22:13:51.089Z,24.43
2019-04-04T22:16:21.961Z,21.13
2019-04-04T22:18:52.505Z,21.90
2019-04-04T22:21:23.280Z,18.60
2019-04-04T22:23:54.082Z,21.40
2019-04-04T22:26:24.611Z,20.97
2019-04-04T22:28:55.282Z,21.90
2019-04-04T22:31:25.911Z,20.57
2019-04-04T22:33:56.431Z,23.63
2019-04-04T22:36:27.027Z,23.00
2019-04-04T22:38:57.621Z,22.80
2019-04-04T22:41:28.252Z,26.13
2019-04-04T22:44:03.770Z,25.53
2019-04-04T22:46:31.241Z,22.40
2019-04-04T22:49:01.893Z,23.83
2019-04-04T22:51:32.415Z,24.80
2019-04-04T22:54:03.175Z,22.00
2019-04-04T22:56:33.791Z,25.40
2019-04-04T22:59:04.384Z,23.83
2019-04-04T23:01:34.850Z,30.90
2019-04-04T23:04:05.487Z,22.67
2019-04-04T23:06:35.995Z,21.83
2019-04-04T23:09:08.745Z,23.83
2019-04-04T23:11:39.504Z,26.20
2019-04-04T23:14:10.042Z,26.80
2019-04-04T23:16:40.710Z,30.90
2019-04-04T23:19:11.492Z,25.43
2019-04-04T23:21:42.201Z,20.27
2019-04-04T23:24:12.883Z,28.13
2019-04-04T23:26:43.486Z,28.57
2019-04-04T23:29:14.082Z,25.13
2019-04-04T23:31:44.643Z,23.33
2019-04-04T23:34:15.171Z,22.73
2019-04-04T23:36:45.681Z,25.43
2019-04-04T23:39:16.206Z,22.87
2019-04-04T23:41:46.781Z,26.50
2019-04-04T23:44:17.586Z,24.93
2019-04-04T23:46:48.205Z,26.33
2019-04-04T23:49:18.670Z,25.30
2019-04-04T23:51:49.352Z,24.37
2019-04-04T23:54:20.191Z,27.73
2019-04-04T23:56:50.662Z,32.07
2019-04-04T23:59:21.291Z,24.10
